Time;durP1;ratioP1;P1;durP2;ratioP2;P2;SDS_P1;SDS_P2;PMS_P1;PMS_P2;Temp;Humidity;BMP_temperature;BMP_pressure;BME280_temperature;BME280_humidity;BME280_pressure;Samples;Min_cycle;Max_cycle;Signal;HPM_P1;HPM_P2
2021/12/09 00:01:42;;;;;;;0.00;0.00;;;0.70;99.90;;;;;;5093768;28;20195;-73
2021/12/09 00:04:12;;;;;;;0.70;0.70;;;0.70;99.90;;;;;;5093613;28;20204;-73
2021/12/09 00:06:39;;;;;;;0.00;0.00;;;0.70;99.90;;;;;;5093729;28;20191;-73
2021/12/09 00:09:15;;;;;;;0.60;0.60;;;0.70;99.90;;;;;;5093061;28;20200;-73
2021/12/09 00:11:45;;;;;;;0.00;0.00;;;0.80;99.90;;;;;;5093673;28;20185;-73
2021/12/09 00:14:16;;;;;;;2.80;0.40;;;0.60;99.90;;;;;;5093474;28;20218;-72
2021/12/09 00:16:41;;;;;;;0.00;0.00;;;0.50;99.90;;;;;;5093009;28;20176;-73
2021/12/09 00:19:07;;;;;;;0.10;0.10;;;0.70;99.90;;;;;;5093200;28;20183;-73
2021/12/09 00:21:33;;;;;;;0.20;0.20;;;0.70;99.90;;;;;;5091805;28;20484;-73
2021/12/09 00:23:59;;;;;;;0.57;0.57;;;0.90;99.90;;;;;;5093241;28;20196;-73
2021/12/09 00:26:24;;;;;;;0.00;0.00;;;0.90;99.90;;;;;;5092846;28;20244;-73
2021/12/09 00:28:50;;;;;;;0.20;0.20;;;0.80;99.90;;;;;;5093036;28;22127;-73
2021/12/09 00:31:17;;;;;;;1.90;1.80;;;0.70;99.90;;;;;;5091646;28;20192;-73
2021/12/09 00:33:45;;;;;;;0.10;0.10;;;0.70;99.90;;;;;;5092945;28;20207;-74
2021/12/09 00:36:12;;;;;;;0.00;0.00;;;0.70;99.90;;;;;;5115837;22;20239;-71
2021/12/09 00:38:40;;;;;;;0.33;0.33;;;0.60;99.90;;;;;;5113086;28;20269;-71
2021/12/09 00:41:12;;;;;;;0.53;0.53;;;0.60;99.90;;;;;;5113269;28;20604;-70
2021/12/09 00:43:38;;;;;;;0.10;0.10;;;0.60;99.90;;;;;;5113222;28;20171;-70
2021/12/09 00:46:05;;;;;;;0.00;0.00;;;0.60;99.90;;;;;;5112807;28;20190;-70
2021/12/09 00:48:31;;;;;;;0.70;0.67;;;0.50;99.90;;;;;;5112840;28;20217;-72
2021/12/09 00:50:57;;;;;;;0.60;0.60;;;0.50;99.90;;;;;;5112388;28;20198;-70
2021/12/09 00:53:23;;;;;;;0.10;0.10;;;0.60;99.90;;;;;;5112836;28;20179;-70
2021/12/09 00:55:49;;;;;;;0.47;0.47;;;0.50;99.90;;;;;;5112480;28;20171;-69
2021/12/09 00:58:15;;;;;;;0.40;0.40;;;0.60;99.90;;;;;;5112991;28;20179;-70
2021/12/09 01:00:41;;;;;;;0.87;0.87;;;0.60;99.90;;;;;;5112566;28;20642;-70
2021/12/09 01:03:07;;;;;;;0.67;0.67;;;0.60;99.90;;;;;;5112690;28;20171;-70
2021/12/09 01:05:33;;;;;;;0.30;0.30;;;0.60;99.90;;;;;;5094105;28;20206;-70
2021/12/09 01:07:58;;;;;;;1.60;0.77;;;0.50;99.90;;;;;;5111643;28;20234;-70
2021/12/09 01:10:24;;;;;;;0.80;0.80;;;0.50;99.90;;;;;;5112462;28;20578;-71
2021/12/09 01:12:51;;;;;;;0.20;0.20;;;0.40;99.90;;;;;;5112702;28;20203;-70
2021/12/09 01:15:18;;;;;;;0.10;0.10;;;0.30;99.90;;;;;;5112556;28;20723;-70
2021/12/09 01:17:46;;;;;;;1.93;1.70;;;0.10;99.90;;;;;;5112176;28;20245;-70
2021/12/09 01:20:13;;;;;;;0.10;0.10;;;0.00;99.90;;;;;;5112108;28;20631;-71
2021/12/09 01:22:42;;;;;;;0.30;0.30;;;-0.20;99.90;;;;;;5112392;28;20209;-70
2021/12/09 01:25:10;;;;;;;0.00;0.00;;;-0.20;99.90;;;;;;5112389;28;20191;-70
2021/12/09 01:27:39;;;;;;;0.37;0.37;;;-0.30;99.90;;;;;;5112163;28;20201;-70
2021/12/09 01:30:11;;;;;;;0.00;0.00;;;-0.30;99.90;;;;;;5112114;28;20239;-70
2021/12/09 01:32:37;;;;;;;5.50;2.80;;;-0.30;99.90;;;;;;5112194;28;20175;-70
2021/12/09 01:35:04;;;;;;;1.13;0.33;;;-0.30;99.90;;;;;;5112138;28;20164;-70
2021/12/09 01:37:30;;;;;;;0.10;0.10;;;-0.30;99.90;;;;;;5111817;28;20286;-70
2021/12/09 01:39:55;;;;;;;0.50;0.50;;;-0.20;99.90;;;;;;5111665;28;20258;-70
2021/12/09 01:42:21;;;;;;;0.00;0.00;;;-0.20;99.90;;;;;;5112068;28;20175;-70
2021/12/09 01:44:47;;;;;;;0.37;0.23;;;-0.20;99.90;;;;;;5112161;28;20179;-69
2021/12/09 01:47:13;;;;;;;1.17;0.57;;;-0.10;99.90;;;;;;5111494;28;20293;-70
2021/12/09 01:49:38;;;;;;;1.30;1.20;;;-0.10;99.90;;;;;;5111833;28;20195;-69
2021/12/09 01:52:05;;;;;;;0.20;0.20;;;0.00;99.90;;;;;;5093699;28;20650;-70
2021/12/09 01:54:31;;;;;;;8.03;2.77;;;0.20;99.90;;;;;;5111986;28;20179;-70
2021/12/09 01:56:59;;;;;;;0.00;0.00;;;0.30;99.90;;;;;;5111608;28;20662;-69
2021/12/09 01:59:25;;;;;;;0.00;0.00;;;0.40;99.90;;;;;;5111400;28;20175;-69
2021/12/09 02:01:51;;;;;;;0.00;0.00;;;0.50;99.90;;;;;;5112174;28;20179;-70
2021/12/09 02:04:16;;;;;;;5.00;1.17;;;0.50;99.90;;;;;;5112032;28;20191;-69
2021/12/09 02:06:43;;;;;;;0.00;0.00;;;0.40;99.90;;;;;;5111469;28;20199;-72
2021/12/09 02:09:11;;;;;;;16.47;1.30;;;0.30;99.90;;;;;;5093270;28;20206;-70
2021/12/09 02:11:36;;;;;;;0.97;0.97;;;0.30;99.90;;;;;;5111962;28;20401;-71
2021/12/09 02:14:04;;;;;;;0.00;0.00;;;0.20;99.90;;;;;;5111597;28;20646;-69
2021/12/09 02:16:29;;;;;;;0.00;0.00;;;0.20;99.90;;;;;;5112107;28;20242;-69
2021/12/09 02:18:55;;;;;;;0.23;0.23;;;0.10;99.90;;;;;;5111586;28;20267;-70
2021/12/09 02:21:24;;;;;;;0.00;0.00;;;0.00;99.90;;;;;;5093528;28;20175;-71
2021/12/09 02:23:54;;;;;;;0.00;0.00;;;-0.10;99.90;;;;;;5093203;28;20210;-71
2021/12/09 02:26:23;;;;;;;4.70;2.33;;;-0.20;99.90;;;;;;5111581;28;20711;-70
2021/12/09 02:28:50;;;;;;;0.00;0.00;;;-0.20;99.90;;;;;;5093230;28;20197;-70
2021/12/09 02:31:16;;;;;;;0.10;0.10;;;-0.30;99.90;;;;;;5093385;28;20179;-73
2021/12/09 02:33:42;;;;;;;0.00;0.00;;;-0.20;99.90;;;;;;5111471;28;20588;-70
2021/12/09 02:36:08;;;;;;;0.00;0.00;;;-0.30;99.90;;;;;;5111010;28;20206;-71
2021/12/09 02:38:41;;;;;;;0.00;0.00;;;-0.30;99.90;;;;;;5111540;28;20204;-70
2021/12/09 02:41:09;;;;;;;0.00;0.00;;;-0.40;99.90;;;;;;5111336;28;20175;-71
2021/12/09 02:43:35;;;;;;;0.63;0.63;;;-0.40;99.90;;;;;;5111347;28;20714;-70
2021/12/09 02:46:01;;;;;;;0.27;0.27;;;-0.50;99.90;;;;;;5110825;28;20304;-71
2021/12/09 02:48:27;;;;;;;0.00;0.00;;;-0.50;99.90;;;;;;5111304;28;20534;-71
2021/12/09 02:50:53;;;;;;;0.03;0.03;;;-0.50;99.90;;;;;;5093036;28;20199;-72
2021/12/09 02:53:20;;;;;;;0.10;0.10;;;-0.60;99.90;;;;;;5115164;28;20164;-70
2021/12/09 02:55:45;;;;;;;0.10;0.10;;;-0.60;99.90;;;;;;5096678;28;20634;-69
2021/12/09 02:58:12;;;;;;;0.00;0.00;;;-0.70;99.90;;;;;;5115203;28;20175;-72
2021/12/09 03:00:55;;;;;;;0.43;0.43;;;-0.80;99.90;;;;;;5114579;28;20179;-70
2021/12/09 03:03:21;;;;;;;0.57;0.57;;;-0.90;99.90;;;;;;5115132;28;20175;-70
2021/12/09 03:05:47;;;;;;;0.00;0.00;;;-0.90;99.90;;;;;;5114672;28;20233;-70
2021/12/09 03:08:20;;;;;;;0.10;0.10;;;-0.90;99.90;;;;;;5114926;28;20654;-72
2021/12/09 03:10:46;;;;;;;0.10;0.10;;;-0.90;99.90;;;;;;5114966;28;20203;-71
2021/12/09 03:13:12;;;;;;;0.00;0.00;;;-0.80;99.90;;;;;;5114915;28;20175;-70
2021/12/09 03:15:37;;;;;;;0.87;0.87;;;-0.80;99.90;;;;;;5114792;28;20177;-71
2021/12/09 03:18:03;;;;;;;0.10;0.10;;;-0.90;99.90;;;;;;5114380;28;20195;-71
2021/12/09 03:20:29;;;;;;;0.10;0.10;;;-0.90;99.90;;;;;;5114667;28;20179;-70
2021/12/09 03:22:54;;;;;;;0.53;0.53;;;-0.90;99.90;;;;;;5114885;28;20270;-71
2021/12/09 03:25:21;;;;;;;0.03;0.03;;;-0.90;99.90;;;;;;5096375;28;20211;-73
2021/12/09 03:27:47;;;;;;;0.67;0.67;;;-0.90;99.90;;;;;;5114459;28;20191;-71
2021/12/09 03:30:17;;;;;;;0.00;0.00;;;-0.80;99.90;;;;;;5114414;28;20190;-71
2021/12/09 03:32:42;;;;;;;0.00;0.00;;;-0.80;99.90;;;;;;5114435;28;20185;-73
2021/12/09 03:35:10;;;;;;;0.10;0.10;;;-0.80;99.90;;;;;;5114666;28;20175;-70
2021/12/09 03:37:36;;;;;;;0.00;0.00;;;-0.90;99.90;;;;;;5114464;28;20818;-70
2021/12/09 03:40:03;;;;;;;0.23;0.23;;;-0.90;99.90;;;;;;5114898;28;20219;-73
2021/12/09 03:42:30;;;;;;;2.43;2.23;;;-1.00;99.90;;;;;;5114276;28;20276;-71
2021/12/09 03:44:56;;;;;;;0.10;0.10;;;-1.00;99.90;;;;;;5114363;28;20182;-71
2021/12/09 03:47:26;;;;;;;0.00;0.00;;;-1.00;99.90;;;;;;5113676;28;20610;-71
2021/12/09 03:49:51;;;;;;;0.00;0.00;;;-1.00;99.90;;;;;;5114149;28;20238;-70
2021/12/09 03:52:17;;;;;;;0.00;0.00;;;-1.00;99.90;;;;;;5095922;28;20966;-70
2021/12/09 03:54:44;;;;;;;0.20;0.20;;;-0.90;99.90;;;;;;5114275;28;20186;-70
2021/12/09 03:57:11;;;;;;;0.47;0.47;;;-0.80;99.90;;;;;;5113697;28;20195;-70
2021/12/09 03:59:38;;;;;;;0.00;0.00;;;-0.80;99.90;;;;;;5113349;28;20194;-70
2021/12/09 04:02:04;;;;;;;0.00;0.00;;;-0.80;99.90;;;;;;5113723;28;20607;-70
2021/12/09 04:04:30;;;;;;;0.20;0.20;;;-0.90;99.90;;;;;;5113921;28;20534;-70
2021/12/09 04:06:56;;;;;;;0.00;0.00;;;-0.80;99.90;;;;;;5113706;28;20221;-70
2021/12/09 04:09:22;;;;;;;1.30;1.30;;;-0.90;99.90;;;;;;5113635;28;20194;-70
2021/12/09 04:11:49;;;;;;;0.00;0.00;;;-0.90;99.90;;;;;;5113752;28;20171;-70
2021/12/09 04:14:16;;;;;;;0.10;0.10;;;-0.90;99.90;;;;;;5113809;28;20190;-70
2021/12/09 04:16:42;;;;;;;0.00;0.00;;;-1.00;99.90;;;;;;5113539;28;20209;-70
2021/12/09 04:19:09;;;;;;;0.10;0.10;;;-1.00;99.90;;;;;;5113381;28;20654;-72
2021/12/09 04:21:35;;;;;;;0.27;0.27;;;-1.10;99.90;;;;;;5113670;28;20574;-70
2021/12/09 04:24:07;;;;;;;0.57;0.57;;;-1.10;99.90;;;;;;5113625;28;20221;-69
2021/12/09 04:26:37;;;;;;;0.00;0.00;;;-1.10;99.90;;;;;;5112967;28;20285;-70
2021/12/09 04:29:05;;;;;;;0.37;0.37;;;-1.20;99.90;;;;;;5113463;28;20539;-70
2021/12/09 04:31:30;;;;;;;0.10;0.10;;;-1.10;99.90;;;;;;5113250;28;20174;-74
2021/12/09 04:33:56;;;;;;;0.00;0.00;;;-1.10;99.90;;;;;;5113567;28;20171;-71
2021/12/09 04:36:23;;;;;;;0.30;0.30;;;-1.20;99.90;;;;;;5112917;28;20295;-70
2021/12/09 04:38:49;;;;;;;0.00;0.00;;;-1.20;99.90;;;;;;5113127;28;20171;-72
2021/12/09 04:41:15;;;;;;;0.00;0.00;;;-1.20;99.90;;;;;;5113027;28;20179;-72
2021/12/09 04:43:42;;;;;;;1.30;0.30;;;-1.20;99.90;;;;;;5095025;28;20562;-70
2021/12/09 04:46:09;;;;;;;0.10;0.10;;;-1.30;99.90;;;;;;5112740;28;20191;-70
2021/12/09 04:48:35;;;;;;;0.00;0.00;;;-1.30;99.90;;;;;;5113107;28;20175;-70
2021/12/09 04:51:00;;;;;;;0.00;0.00;;;-1.30;99.90;;;;;;5113125;28;20237;-70
2021/12/09 04:53:26;;;;;;;0.10;0.10;;;-1.40;99.90;;;;;;5112738;28;20189;-70
2021/12/09 04:55:51;;;;;;;0.30;0.20;;;-1.40;99.90;;;;;;5112684;28;20183;-70
2021/12/09 04:58:17;;;;;;;1.80;1.47;;;-1.30;99.90;;;;;;5112816;28;20253;-70
2021/12/09 05:00:43;;;;;;;0.10;0.10;;;-1.30;99.90;;;;;;5112131;28;20175;-70
2021/12/09 05:03:12;;;;;;;0.10;0.10;;;-1.30;99.90;;;;;;5112894;28;20234;-70
2021/12/09 05:05:50;;;;;;;0.20;0.20;;;-1.40;99.90;;;;;;5094396;28;20187;-71
2021/12/09 05:08:18;;;;;;;0.00;0.00;;;-1.50;99.90;;;;;;5114003;28;20183;-70
2021/12/09 05:13:27;;;;;;;0.10;0.10;;;-1.60;99.90;;;;;;5112651;28;20519;-70
2021/12/09 05:15:54;;;;;;;0.43;0.43;;;-1.60;99.90;;;;;;5111533;28;20184;-70
2021/12/09 05:18:20;;;;;;;0.00;0.00;;;-1.60;99.90;;;;;;5113117;28;20179;-70
2021/12/09 05:20:46;;;;;;;2.30;1.03;;;-1.60;99.90;;;;;;5094856;28;20190;-71
2021/12/09 05:23:13;;;;;;;0.10;0.10;;;-1.60;99.90;;;;;;5112706;28;20244;-70
2021/12/09 05:25:39;;;;;;;0.00;0.00;;;-1.60;99.90;;;;;;5112286;28;20187;-70
2021/12/09 05:28:07;;;;;;;0.33;0.33;;;-1.60;99.90;;;;;;5112519;28;20203;-72
2021/12/09 05:32:07;;;;;;;0.10;0.10;;;-1.60;99.90;;;;;;5112676;28;20183;-70
2021/12/09 05:33:27;;;;;;;0.10;0.10;;;-1.50;99.90;;;;;;5112693;28;20272;-70
2021/12/09 05:35:53;;;;;;;0.00;0.00;;;-1.30;99.90;;;;;;5111702;28;20254;-70
2021/12/09 05:38:19;;;;;;;0.00;0.00;;;-1.30;99.90;;;;;;5096551;28;20267;-70
2021/12/09 05:40:45;;;;;;;0.00;0.00;;;-1.30;99.90;;;;;;5112355;28;20546;-70
2021/12/09 05:43:10;;;;;;;0.20;0.20;;;-1.40;99.90;;;;;;5112594;28;20175;-72
2021/12/09 05:45:36;;;;;;;0.30;0.30;;;-1.50;99.90;;;;;;5111917;28;20274;-70
2021/12/09 05:48:03;;;;;;;0.00;0.00;;;-1.50;99.90;;;;;;5093671;28;20297;-69
2021/12/09 05:50:28;;;;;;;0.30;0.30;;;-1.60;99.90;;;;;;5094310;28;20206;-70
2021/12/09 05:52:54;;;;;;;0.00;0.00;;;-1.70;99.90;;;;;;5112136;28;20182;-72
2021/12/09 05:55:20;;;;;;;0.20;0.20;;;-1.70;99.90;;;;;;5094423;28;20177;-72
2021/12/09 05:57:45;;;;;;;0.40;0.40;;;-1.70;99.90;;;;;;5093034;28;20195;-72
2021/12/09 06:00:11;;;;;;;0.00;0.00;;;-1.70;99.90;;;;;;5111341;28;20217;-72
2021/12/09 06:02:37;;;;;;;0.00;0.00;;;-1.70;99.90;;;;;;5112149;28;20236;-72
2021/12/09 06:05:06;;;;;;;0.00;0.00;;;-1.70;99.90;;;;;;5093701;28;20179;-71
2021/12/09 06:07:31;;;;;;;0.03;0.03;;;-1.70;99.90;;;;;;5111545;28;20206;-71
2021/12/09 06:09:59;;;;;;;0.10;0.10;;;-1.70;99.90;;;;;;5111985;28;20213;-72
2021/12/09 06:12:24;;;;;;;1.13;0.90;;;-1.70;99.90;;;;;;5112351;28;20179;-71
2021/12/09 06:14:50;;;;;;;0.00;0.00;;;-1.70;99.90;;;;;;5112081;28;20645;-71
2021/12/09 06:17:15;;;;;;;0.10;0.10;;;-1.60;99.90;;;;;;5093276;28;20677;-72
2021/12/09 06:19:41;;;;;;;0.10;0.10;;;-1.40;99.90;;;;;;5111614;28;20637;-71
2021/12/09 06:22:06;;;;;;;0.10;0.10;;;-1.30;99.90;;;;;;5111541;28;20228;-72
2021/12/09 06:24:32;;;;;;;0.10;0.10;;;-1.30;99.90;;;;;;5111365;28;20190;-72
2021/12/09 06:26:58;;;;;;;0.77;0.77;;;-1.30;99.90;;;;;;5114896;28;20618;-71
2021/12/09 06:29:24;;;;;;;0.70;0.70;;;-1.20;99.90;;;;;;5097310;28;20604;-71
2021/12/09 06:31:49;;;;;;;0.00;0.00;;;-1.20;99.90;;;;;;5097343;28;20182;-70
2021/12/09 06:34:15;;;;;;;0.00;0.00;;;-1.30;99.90;;;;;;5115894;28;20550;-72
2021/12/09 06:36:42;;;;;;;0.40;0.40;;;-1.30;99.90;;;;;;5120822;22;20296;-72
2021/12/09 06:39:08;;;;;;;0.30;0.30;;;-1.40;99.90;;;;;;5053566;28;20268;-72
2021/12/09 06:41:33;;;;;;;0.00;0.00;;;-1.40;99.90;;;;;;5036930;28;20220;-72
2021/12/09 06:43:59;;;;;;;0.10;0.10;;;-1.50;99.90;;;;;;5054808;28;20201;-72
2021/12/09 06:46:25;;;;;;;0.00;0.00;;;-1.40;99.90;;;;;;5036688;28;20179;-72
2021/12/09 06:48:51;;;;;;;0.90;0.53;;;-1.40;99.90;;;;;;5054635;28;20173;-72
2021/12/09 06:51:17;;;;;;;0.00;0.00;;;-1.30;99.90;;;;;;5036680;28;20231;-72
2021/12/09 06:53:43;;;;;;;0.00;0.00;;;-1.30;99.90;;;;;;5054620;28;20636;-72
2021/12/09 06:56:08;;;;;;;0.00;0.00;;;-1.30;99.90;;;;;;5054179;28;20628;-72
2021/12/09 06:58:35;;;;;;;0.00;0.00;;;-1.30;99.90;;;;;;5054111;28;20202;-72
2021/12/09 07:01:01;;;;;;;0.00;0.00;;;-1.30;99.90;;;;;;5054678;28;20272;-72
2021/12/09 07:03:27;;;;;;;1.43;1.33;;;-1.40;99.90;;;;;;5036694;28;20191;-71
2021/12/09 07:05:54;;;;;;;1.70;0.60;;;-1.40;99.90;;;;;;5054001;28;20179;-71
2021/12/09 07:08:20;;;;;;;0.00;0.00;;;-1.40;99.90;;;;;;5053554;28;20615;-71
2021/12/09 07:10:46;;;;;;;0.20;0.20;;;-1.50;99.90;;;;;;5036271;28;20213;-69
2021/12/09 07:13:12;;;;;;;0.00;0.00;;;-1.50;99.90;;;;;;5054276;28;20176;-69
2021/12/09 07:15:38;;;;;;;0.00;0.00;;;-1.40;99.90;;;;;;5054077;28;20178;-72
2021/12/09 07:18:04;;;;;;;0.10;0.10;;;-1.40;99.90;;;;;;5053956;28;20701;-68
2021/12/09 07:20:31;;;;;;;0.60;0.60;;;-1.30;99.90;;;;;;5052944;28;20173;-69
2021/12/09 07:22:57;;;;;;;0.83;0.83;;;-1.30;99.90;;;;;;5036273;28;20335;-68
2021/12/09 07:25:25;;;;;;;1.90;1.80;;;-1.30;99.90;;;;;;5053952;28;20177;-69
2021/12/09 07:27:52;;;;;;;0.10;0.10;;;-1.20;99.90;;;;;;5053683;28;20208;-68
2021/12/09 07:30:19;;;;;;;0.27;0.27;;;-1.10;99.90;;;;;;5053310;28;20209;-69
2021/12/09 07:32:45;;;;;;;0.00;0.00;;;-1.10;99.90;;;;;;5036159;28;20181;-69
2021/12/09 07:35:13;;;;;;;0.10;0.10;;;-1.00;99.90;;;;;;5037332;28;20172;-70
2021/12/09 07:37:39;;;;;;;2.23;1.70;;;-1.00;99.90;;;;;;5052202;28;20287;-69
2021/12/09 07:40:09;;;;;;;0.43;0.43;;;-0.90;99.90;;;;;;5034859;28;20185;-70
2021/12/09 07:42:35;;;;;;;0.00;0.00;;;-0.80;99.90;;;;;;5051208;28;20260;-71
2021/12/09 07:45:02;;;;;;;0.00;0.00;;;-0.90;99.90;;;;;;5053316;28;20227;-69
2021/12/09 07:47:28;;;;;;;0.07;0.07;;;-1.00;99.90;;;;;;5052888;28;21071;-69
2021/12/09 07:49:53;;;;;;;0.00;0.00;;;-1.00;99.90;;;;;;5053129;28;20193;-70
2021/12/09 07:52:19;;;;;;;0.23;0.23;;;-1.00;99.90;;;;;;5053545;28;20212;-70
2021/12/09 07:54:44;;;;;;;0.00;0.00;;;-0.90;99.90;;;;;;5053316;28;20181;-70
2021/12/09 07:57:10;;;;;;;0.10;0.10;;;-0.70;99.90;;;;;;5053096;28;20193;-70
2021/12/09 07:59:35;;;;;;;0.23;0.23;;;-0.60;99.90;;;;;;5035037;28;20177;-70
2021/12/09 08:02:02;;;;;;;0.00;0.00;;;-0.50;99.90;;;;;;5035312;28;20256;-70
2021/12/09 08:04:27;;;;;;;0.40;0.40;;;-0.30;99.90;;;;;;5052960;28;20674;-71
2021/12/09 08:06:53;;;;;;;0.00;0.00;;;-0.10;99.90;;;;;;5052150;28;20193;-70
2021/12/09 08:09:19;;;;;;;0.57;0.57;;;0.10;99.90;;;;;;5052762;28;20193;-70
2021/12/09 08:11:44;;;;;;;0.00;0.00;;;0.20;99.90;;;;;;5053329;28;20250;-70
2021/12/09 08:14:11;;;;;;;0.00;0.00;;;0.20;99.90;;;;;;5035504;28;20242;-70
2021/12/09 08:16:39;;;;;;;0.10;0.10;;;0.30;99.90;;;;;;5052312;28;20204;-70
2021/12/09 08:19:06;;;;;;;0.10;0.10;;;0.50;99.90;;;;;;5052988;28;20256;-70
2021/12/09 08:21:36;;;;;;;0.10;0.10;;;0.60;99.90;;;;;;5052273;28;20549;-70
2021/12/09 08:24:04;;;;;;;0.10;0.10;;;0.70;99.90;;;;;;5052984;28;20201;-71
2021/12/09 08:26:30;;;;;;;0.13;0.13;;;0.70;99.90;;;;;;5052350;28;20169;-70
2021/12/09 08:28:55;;;;;;;0.10;0.10;;;0.80;99.90;;;;;;5034946;28;20185;-70
2021/12/09 08:31:21;;;;;;;0.40;0.40;;;0.90;99.90;;;;;;5034549;28;20256;-70
2021/12/09 08:33:47;;;;;;;0.20;0.20;;;1.00;99.90;;;;;;5052582;28;20181;-70
2021/12/09 08:36:12;;;;;;;1.00;0.93;;;1.20;99.90;;;;;;5044218;28;20177;-70
2021/12/09 08:38:38;;;;;;;0.10;0.10;;;1.30;99.90;;;;;;5034723;28;20299;-70
2021/12/09 08:41:04;;;;;;;0.10;0.10;;;1.40;99.90;;;;;;5052533;28;20177;-70
2021/12/09 08:43:30;;;;;;;0.00;0.00;;;1.60;99.90;;;;;;5052405;28;20185;-72
2021/12/09 08:45:56;;;;;;;1.13;1.07;;;1.60;99.90;;;;;;5052098;28;20181;-72
2021/12/09 08:48:23;;;;;;;1.20;1.10;;;1.60;99.90;;;;;;5049067;28;20212;-72
2021/12/09 08:50:49;;;;;;;0.00;0.00;;;1.70;99.90;;;;;;5051445;28;20202;-72
2021/12/09 08:53:18;;;;;;;0.77;0.67;;;1.70;99.90;;;;;;5053468;28;20181;-70
2021/12/09 08:55:44;;;;;;;0.10;0.10;;;1.80;99.90;;;;;;5052920;28;20729;-69
2021/12/09 08:58:12;;;;;;;0.67;0.67;;;1.80;99.90;;;;;;5052153;28;20197;-67
2021/12/09 09:00:38;;;;;;;0.50;0.50;;;1.70;99.90;;;;;;5052248;28;20189;-67
2021/12/09 09:03:05;;;;;;;2.90;1.80;;;1.80;99.90;;;;;;5051961;28;20181;-67
2021/12/09 09:05:35;;;;;;;1.70;1.60;;;1.80;99.90;;;;;;5052569;28;20556;-67
2021/12/09 09:08:02;;;;;;;0.63;0.63;;;1.90;99.90;;;;;;5052216;28;20565;-68
2021/12/09 09:10:30;;;;;;;0.83;0.83;;;1.90;99.90;;;;;;5052076;28;20287;-68
2021/12/09 09:12:56;;;;;;;0.43;0.43;;;2.00;99.90;;;;;;5034193;28;20212;-68
2021/12/09 09:15:24;;;;;;;0.47;0.47;;;2.10;99.90;;;;;;5033974;28;20212;-68
2021/12/09 09:17:50;;;;;;;0.53;0.53;;;2.10;99.90;;;;;;5051449;28;20200;-68
2021/12/09 09:20:18;;;;;;;0.80;0.77;;;2.20;99.90;;;;;;5051803;28;20177;-68
2021/12/09 09:22:43;;;;;;;0.70;0.70;;;2.20;99.90;;;;;;5051801;28;20267;-67
2021/12/09 09:25:17;;;;;;;6.33;2.63;;;2.20;99.90;;;;;;5033806;28;20268;-67
2021/12/09 09:27:47;;;;;;;0.37;0.37;;;2.30;99.90;;;;;;5033407;28;20754;-68
2021/12/09 09:30:17;;;;;;;1.13;1.03;;;2.30;99.90;;;;;;5051131;28;20214;-68
2021/12/09 09:32:47;;;;;;;0.20;0.20;;;2.30;99.90;;;;;;5051697;28;20538;-68
2021/12/09 09:35:13;;;;;;;0.10;0.10;;;2.40;99.90;;;;;;5052064;28;20174;-68
2021/12/09 09:37:39;;;;;;;0.17;0.17;;;2.40;99.90;;;;;;5051389;28;20221;-68
2021/12/09 09:40:11;;;;;;;0.87;0.87;;;2.50;99.90;;;;;;5051227;28;20181;-67
2021/12/09 09:45:11;;;;;;;0.23;0.23;;;2.90;99.90;;;;;;5051480;28;20182;-68
2021/12/09 09:47:36;;;;;;;1.50;1.43;;;3.10;99.90;;;;;;5051051;28;20191;-68
2021/12/09 09:50:06;;;;;;;0.00;0.00;;;3.40;99.90;;;;;;5051339;28;20274;-68
2021/12/09 09:52:32;;;;;;;1.30;1.20;;;3.50;99.90;;;;;;5051169;28;20556;-67
2021/12/09 09:54:59;;;;;;;11.57;0.77;;;3.60;99.90;;;;;;5051576;28;20182;-68
2021/12/09 09:57:25;;;;;;;1.23;0.93;;;3.70;99.90;;;;;;5050942;28;20278;-68
2021/12/09 09:59:51;;;;;;;0.30;0.30;;;3.80;99.90;;;;;;5050995;28;20180;-68
2021/12/09 10:02:19;;;;;;;0.00;0.00;;;3.90;99.90;;;;;;5051162;28;20214;-68
2021/12/09 10:04:48;;;;;;;6.67;4.23;;;3.90;99.90;;;;;;5051311;28;20182;-68
2021/12/09 10:07:17;;;;;;;0.43;0.43;;;4.00;99.90;;;;;;5051250;28;20193;-68
2021/12/09 10:09:43;;;;;;;0.50;0.50;;;4.10;99.90;;;;;;5050457;28;20303;-68
2021/12/09 10:12:10;;;;;;;0.10;0.10;;;4.20;99.90;;;;;;5051135;28;20208;-67
2021/12/09 10:14:36;;;;;;;1.23;0.77;;;4.30;99.90;;;;;;5051300;28;20184;-68
2021/12/09 10:17:14;;;;;;;0.20;0.20;;;4.50;99.90;;;;;;5050750;28;20610;-69
2021/12/09 10:19:51;;;;;;;0.40;0.40;;;4.70;99.90;;;;;;5051118;28;20192;-68
2021/12/09 10:22:21;;;;;;;0.50;0.50;;;4.80;99.90;;;;;;5033127;28;20606;-68
2021/12/09 10:24:50;;;;;;;0.37;0.37;;;5.00;99.90;;;;;;5050791;28;20275;-69
2021/12/09 10:27:31;;;;;;;3.13;2.53;;;5.20;99.90;;;;;;5050904;28;20569;-69
2021/12/09 10:30:13;;;;;;;2.43;2.33;;;5.60;99.90;;;;;;5050299;28;20211;-69
2021/12/09 10:32:39;;;;;;;0.20;0.20;;;5.80;99.90;;;;;;5051050;28;20177;-68
2021/12/09 10:35:11;;;;;;;0.67;0.67;;;6.10;99.90;;;;;;5050831;28;20198;-68
2021/12/09 10:37:39;;;;;;;0.07;0.07;;;5.70;99.90;;;;;;5050753;28;20220;-68
2021/12/09 10:40:16;;;;;;;0.80;0.80;;;5.50;99.90;;;;;;5050583;28;20200;-68
2021/12/09 10:42:43;;;;;;;0.47;0.43;;;5.20;99.90;;;;;;5051116;28;20208;-68
2021/12/09 10:45:20;;;;;;;0.10;0.10;;;5.10;99.90;;;;;;5050983;28;20538;-69
2021/12/09 10:48:16;;;;;;;0.97;0.60;;;5.00;99.90;;;;;;5050479;28;20274;-68
2021/12/09 10:50:53;;;;;;;0.40;0.40;;;5.00;99.90;;;;;;5050937;28;20211;-69
2021/12/09 10:55:51;;;;;;;0.70;0.70;;;4.90;99.90;;;;;;5050475;28;20182;-68
2021/12/09 10:58:22;;;;;;;0.30;0.30;;;4.90;99.90;;;;;;5050727;28;20639;-68
2021/12/09 11:00:55;;;;;;;1.90;1.80;;;4.90;99.90;;;;;;5050380;28;20200;-69
2021/12/09 11:03:24;;;;;;;0.00;0.00;;;4.90;99.90;;;;;;5050691;28;20181;-69
2021/12/09 11:05:58;;;;;;;0.87;0.87;;;4.80;99.90;;;;;;5050287;28;20177;-68
2021/12/09 11:08:26;;;;;;;0.10;0.10;;;4.80;99.90;;;;;;5032044;28;20243;-68
2021/12/09 11:11:01;;;;;;;0.47;0.47;;;4.90;99.90;;;;;;5050458;28;20200;-69
2021/12/09 11:13:42;;;;;;;0.77;0.77;;;4.90;99.90;;;;;;5053130;28;20172;-69
2021/12/09 11:16:08;;;;;;;0.10;0.10;;;4.80;99.90;;;;;;5054440;28;20181;-68
2021/12/09 11:18:44;;;;;;;0.10;0.10;;;4.80;99.90;;;;;;5053964;28;20288;-69
2021/12/09 11:21:23;;;;;;;0.20;0.20;;;4.80;99.90;;;;;;5054152;28;20226;-69
2021/12/09 11:23:56;;;;;;;1.13;1.13;;;4.80;99.90;;;;;;5054056;28;20242;-69
2021/12/09 11:26:46;;;;;;;0.93;0.93;;;4.80;99.90;;;;;;5054014;28;20196;-68
2021/12/09 11:29:18;;;;;;;0.73;0.73;;;4.80;99.90;;;;;;5037314;28;20185;-68
2021/12/09 11:31:55;;;;;;;3.13;1.13;;;4.80;99.90;;;;;;5054212;28;20646;-68
2021/12/09 11:34:26;;;;;;;0.10;0.10;;;4.90;99.90;;;;;;5036117;28;20200;-69
2021/12/09 11:37:03;;;;;;;7.90;1.90;;;4.90;99.90;;;;;;5053354;28;20221;-69
2021/12/09 11:39:33;;;;;;;0.30;0.30;;;4.90;99.90;;;;;;5054483;28;20772;-69
2021/12/09 11:42:29;;;;;;;0.37;0.37;;;4.90;99.90;;;;;;5054341;28;20181;-69
2021/12/09 11:44:55;;;;;;;0.57;0.57;;;4.90;99.90;;;;;;5053792;28;20219;-68
2021/12/09 11:47:21;;;;;;;0.30;0.30;;;4.90;99.90;;;;;;5053538;28;20232;-68
2021/12/09 11:49:47;;;;;;;0.30;0.13;;;4.90;99.90;;;;;;5035678;28;20266;-69
2021/12/09 11:52:16;;;;;;;0.87;0.87;;;4.90;99.90;;;;;;5053579;28;20177;-68
2021/12/09 11:54:55;;;;;;;0.30;0.30;;;4.90;99.90;;;;;;5053557;28;20230;-68
2021/12/09 11:58:26;;;;;;;0.20;0.20;;;4.90;99.90;;;;;;5035632;28;20204;-69
2021/12/09 12:07:07;;;;;;;1.07;1.03;;;4.80;99.90;;;;;;5052845;28;20661;-68
2021/12/09 12:15:23;;;;;;;1.43;0.73;;;4.80;99.90;;;;;;5053158;28;20734;-69
2021/12/09 12:21:03;;;;;;;0.10;0.10;;;4.90;99.90;;;;;;5053483;28;20251;-69
2021/12/09 12:23:48;;;;;;;1.03;0.97;;;4.90;99.90;;;;;;5052687;28;20209;-69
2021/12/09 12:40:02;;;;;;;0.33;0.33;;;5.00;99.90;;;;;;5108341;22;20235;-68
2021/12/09 12:42:55;;;;;;;0.47;0.47;;;4.90;99.90;;;;;;5092725;28;20195;-69
2021/12/09 12:51:30;;;;;;;0.10;0.10;;;5.00;99.90;;;;;;5092488;28;20212;-70
2021/12/09 12:54:07;;;;;;;0.80;0.80;;;5.00;99.90;;;;;;5093107;28;20178;-68
2021/12/09 12:56:41;;;;;;;0.20;0.20;;;5.00;99.90;;;;;;5074062;28;20186;-71
2021/12/09 12:59:13;;;;;;;0.70;0.70;;;5.00;99.90;;;;;;5092382;28;20822;-68
2021/12/09 13:01:44;;;;;;;0.40;0.40;;;5.00;99.90;;;;;;5092557;28;20176;-71
2021/12/09 13:04:40;;;;;;;0.40;0.40;;;5.00;99.90;;;;;;5092410;28;20214;-68
2021/12/09 13:08:11;;;;;;;0.00;0.00;;;5.00;99.90;;;;;;5091922;28;20543;-68
2021/12/09 13:10:50;;;;;;;0.03;0.03;;;4.90;99.90;;;;;;5071205;28;20242;-69
2021/12/09 13:16:38;;;;;;;0.60;0.57;;;4.90;99.90;;;;;;5092263;28;20180;-69
2021/12/09 13:19:17;;;;;;;0.53;0.30;;;5.00;99.90;;;;;;5091932;28;20192;-69
2021/12/09 13:21:58;;;;;;;0.87;0.87;;;4.90;99.90;;;;;;5092054;28;20731;-68
2021/12/09 13:27:39;;;;;;;0.10;0.10;;;5.00;99.90;;;;;;5091940;28;20184;-68
2021/12/09 13:36:31;;;;;;;0.10;0.10;;;5.10;99.90;;;;;;5002511;28;20239;-69
2021/12/09 13:39:22;;;;;;;1.50;0.63;;;5.10;99.90;;;;;;5080504;28;20200;-68
2021/12/09 13:50:15;;;;;;;0.27;0.27;;;5.10;99.90;;;;;;5091494;28;20191;-68
2021/12/09 13:55:15;;;;;;;0.00;0.00;;;5.00;99.90;;;;;;5091435;28;20168;-68
2021/12/09 13:57:47;;;;;;;0.87;0.87;;;5.00;99.90;;;;;;5090964;28;20689;-68
2021/12/09 14:00:35;;;;;;;1.93;1.83;;;5.00;99.90;;;;;;5091416;28;20665;-69
2021/12/09 14:03:04;;;;;;;1.10;0.63;;;5.00;99.90;;;;;;5081729;28;20250;-69
2021/12/09 14:05:50;;;;;;;0.00;0.00;;;4.90;99.90;;;;;;5091538;28;20707;-69
2021/12/09 14:08:28;;;;;;;0.00;0.00;;;4.90;99.90;;;;;;5091436;28;20200;-69